Terminal Aerodrome Forecast
Issued by NWS

Home | Current Version | Previous Version | Text Only | Print | Product List | Glossary On
Versions: 1 2 3 4 5 6 7 8 9 10 11 12 13 14 15 16 17
000
FTUS45 KTFX 211745
TAFGTF
TAF
KGTF 211745Z 2118/2218 20008KT P6SM SCT040 BKN060
      TEMPO 2121/2124 -SHRA BKN050
     FM220000 26005KT P6SM -SHRA SCT030 BKN050
     FM220400 31005KT 6SM -SHSN BR SCT020 BKN040=

USA.gov is the U.S. government's official web portal to all federal, state and local government web resources and services.